Grand Canyon, AZ

4:44 PM MST on February 24, 2018 (GMT -0700)
Grand Canyon Village | | Change Station

Elev 6991 ft 36.05 °N, 112.12 °W | Updated 38 seconds ago

Clear
Clear
30.0 °F
Feels Like 30 °F
N
2.0
Wind Variable Wind from WSW
Gusts 11.0 mph

Today
High -- | Low -- °F
--% Chance of Precip.
Yesterday
High -- | Low -- °F
Precip. -- in
Pressure 30.22 in
Visibility 10.0 miles
Clouds Clear
Windchill 30 °F
Dew Point 10 °F
Humidity 42%
Rainfall 0.02 in
Snow Depth Not available.
7:05 AM 6:18 PM
Waxing Gibbous, 68% visible
METAR KGCN 242254Z 21007KT 10SM CLR M02/M12 A3005 RMK AO2 UPB43E50 SLP232 P0000 T10171122 $
Pressure 30.22 in
Visibility 10.0 miles
Clouds Clear
Windchill 30 °F
Dew Point 10 °F
Humidity 42%
Rainfall 0.02 in
Snow Depth Not available.
7:05 AM 6:18 PM
Waxing Gibbous, 68% visible
METAR KGCN 242254Z 21007KT 10SM CLR M02/M12 A3005 RMK AO2 UPB43E50 SLP232 P0000 T10171122 $

Get Severe Weather Alerts

Thanks for signing up!

Be on the lookout for a verification email in your inbox.

You'll start receiving the daily forecast at 6 AM.

×

10-Day Weather Forecast

Almanac

Astronomy

Feb. 24, 2018 Rise Set
Actual Time
Civil Twilight
Nautical Twilight
Astronomical Twilight
Moon
Length of Visible Light
Length of Day
Tomorrow will be .
, % of the Moon is Illuminated

Today's Extremes

State Highs State Lows

Community

WunderPhotos

Category 6

Welcome to Category 6. This is the collective home for Weather Underground's featured writeups by Dr. Jeff Masters (right), Bob Henson (left), Chris Burt, and other regular contributors.

Nearby

Air Quality

  Air Quality AQ Index Pollutant
Not available.

Snow Depth

Station Depth Elevation

Earthquake Activity

City Distance Mag. Time & Date
Minimum magnitude displayed is 2.5.

Coastal Water Temperatures

Place Temperature

Stations

Nearby Weather Stations

Station Location Temp. Windchill Dew Point Humidity Wind Precip. Elev Updated Type
                   

Watches & Warnings

There are currently no watches in effect.